createdAt,value
2022-12-26T00:00:12.057Z,34.38
2022-12-26T00:01:14.971Z,29.70
2022-12-26T00:02:17.694Z,33.15
2022-12-26T00:03:20.552Z,28.85
2022-12-26T00:04:49.740Z,35.45
2022-12-26T00:05:49.738Z,35.95
2022-12-26T00:06:52.538Z,32.08
2022-12-26T00:07:55.475Z,38.10
2022-12-26T00:08:59.190Z,37.67
2022-12-26T00:10:02.826Z,35.60
2022-12-26T00:11:05.746Z,34.90
2022-12-26T00:12:08.622Z,36.63
2022-12-26T00:13:39.621Z,33.60
2022-12-26T00:14:34.047Z,37.63
2022-12-26T00:15:40.802Z,38.78
2022-12-26T00:16:45.094Z,37.15
2022-12-26T00:17:48.198Z,36.50
2022-12-26T00:18:51.196Z,34.10
2022-12-26T00:19:53.977Z,38.20
2022-12-26T00:20:56.676Z,36.08
2022-12-26T00:21:59.470Z,35.08
2022-12-26T00:23:02.383Z,35.88
2022-12-26T00:24:05.474Z,35.97
2022-12-26T00:25:08.504Z,32.42
2022-12-26T00:26:16.880Z,38.00
2022-12-26T00:27:19.624Z,37.42
2022-12-26T00:28:23.419Z,40.90
2022-12-26T00:29:26.305Z,35.47
2022-12-26T00:30:29.206Z,33.63
2022-12-26T00:31:34.206Z,38.92
2022-12-26T00:32:37.025Z,33.72
2022-12-26T00:33:40.204Z,32.55
2022-12-26T00:34:43.092Z,35.75
2022-12-26T00:35:45.886Z,34.65
2022-12-26T00:36:48.694Z,32.90
2022-12-26T00:37:51.386Z,34.28
2022-12-26T00:38:54.941Z,33.58
2022-12-26T00:39:57.735Z,30.10
2022-12-26T00:41:02.107Z,38.03
2022-12-26T00:42:04.907Z,28.63
2022-12-26T00:43:07.721Z,32.72
2022-12-26T00:44:10.420Z,29.77
2022-12-26T00:45:13.239Z,30.95
2022-12-26T00:46:17.021Z,29.50
2022-12-26T00:47:19.941Z,34.88
2022-12-26T00:48:22.985Z,32.38
2022-12-26T00:49:25.909Z,30.73
2022-12-26T00:50:34.436Z,34.15
2022-12-26T00:51:37.623Z,33.03
2022-12-26T00:52:40.293Z,27.58
2022-12-26T00:53:43.703Z,32.75
2022-12-26T00:54:46.510Z,32.22
2022-12-26T00:55:49.602Z,31.38
2022-12-26T00:56:52.575Z,30.65
2022-12-26T00:57:55.356Z,30.92
2022-12-26T00:58:58.128Z,35.58
2022-12-26T01:00:00.842Z,33.20
2022-12-26T01:01:12.614Z,32.50
2022-12-26T01:02:34.155Z,26.77
2022-12-26T01:03:37.192Z,31.42
2022-12-26T01:04:40.064Z,35.10
2022-12-26T01:05:44.436Z,29.02
2022-12-26T01:06:47.174Z,37.25
2022-12-26T01:08:21.755Z,28.88
2022-12-26T01:09:13.765Z,28.02
2022-12-26T01:10:18.060Z,33.13
2022-12-26T01:11:40.330Z,31.60
2022-12-26T01:12:43.592Z,29.55
2022-12-26T01:13:46.332Z,29.90
2022-12-26T01:14:49.153Z,29.90
2022-12-26T01:15:53.742Z,30.63
2022-12-26T01:16:56.813Z,28.67
2022-12-26T01:18:00.350Z,32.00
2022-12-26T01:19:03.132Z,34.67
2022-12-26T01:20:06.499Z,31.35
2022-12-26T01:21:11.011Z,30.58
2022-12-26T01:22:13.787Z,30.35
2022-12-26T01:23:17.632Z,29.77
2022-12-26T01:24:20.324Z,27.15
2022-12-26T01:25:23.847Z,27.95
2022-12-26T01:26:26.784Z,28.83
2022-12-26T01:27:29.804Z,30.40
2022-12-26T01:28:32.535Z,31.38
2022-12-26T01:29:35.336Z,28.48
2022-12-26T01:30:38.442Z,35.15
2022-12-26T01:31:41.175Z,33.70
2022-12-26T01:32:44.225Z,35.00
2022-12-26T01:33:47.437Z,31.17
2022-12-26T01:34:52.154Z,30.33
2022-12-26T01:35:55.009Z,37.30
2022-12-26T01:36:57.846Z,30.48
2022-12-26T01:38:00.700Z,36.17
2022-12-26T01:39:03.535Z,31.63
2022-12-26T01:40:06.834Z,28.95
2022-12-26T01:41:20.380Z,34.88
2022-12-26T01:42:25.596Z,34.47
2022-12-26T01:43:52.528Z,30.83
2022-12-26T01:45:13.999Z,32.92
2022-12-26T01:46:17.748Z,33.00
2022-12-26T01:47:22.631Z,33.80
2022-12-26T01:48:33.505Z,33.15
2022-12-26T01:49:39.372Z,31.38
2022-12-26T01:50:57.629Z,31.10
2022-12-26T01:52:05.434Z,30.15
2022-12-26T01:53:16.534Z,33.55
2022-12-26T01:54:40.734Z,29.48
2022-12-26T01:55:45.541Z,30.42
2022-12-26T01:56:48.871Z,33.85
2022-12-26T01:57:58.647Z,30.30
2022-12-26T01:59:12.783Z,34.78
2022-12-26T02:00:16.066Z,30.98
2022-12-26T02:01:19.349Z,33.58
2022-12-26T02:02:23.157Z,33.33
2022-12-26T02:03:44.655Z,32.65
2022-12-26T02:05:08.791Z,32.00
2022-12-26T02:06:13.518Z,30.27
2022-12-26T02:07:16.349Z,30.85
2022-12-26T02:08:24.547Z,31.25
2022-12-26T02:09:27.378Z,33.60
2022-12-26T02:10:58.857Z,31.33
2022-12-26T02:12:34.934Z,30.88
2022-12-26T02:13:32.105Z,39.72
2022-12-26T02:14:34.936Z,33.88
2022-12-26T02:15:38.067Z,29.98
2022-12-26T02:16:41.526Z,33.03
2022-12-26T02:17:44.792Z,32.47
2022-12-26T02:18:47.614Z,29.65
2022-12-26T02:20:21.594Z,36.20
2022-12-26T02:21:39.757Z,37.85
2022-12-26T02:23:23.815Z,32.38
2022-12-26T02:24:50.663Z,39.72
2022-12-26T02:26:05.131Z,37.00
2022-12-26T02:27:49.270Z,35.08
2022-12-26T02:28:51.999Z,34.50
2022-12-26T02:30:25.194Z,33.25
2022-12-26T02:31:52.660Z,39.15
2022-12-26T02:32:58.535Z,32.28
2022-12-26T02:34:19.656Z,38.72
2022-12-26T02:35:22.388Z,36.08
2022-12-26T02:36:42.998Z,43.72
2022-12-26T02:38:30.472Z,32.95
2022-12-26T02:39:54.208Z,30.25
2022-12-26T02:41:22.912Z,42.58
2022-12-26T02:42:46.872Z,35.92
2022-12-26T02:44:39.974Z,32.97
2022-12-26T02:46:03.038Z,30.70
2022-12-26T02:47:11.815Z,33.70
2022-12-26T02:48:29.297Z,35.67
2022-12-26T02:50:27.881Z,31.88
2022-12-26T02:52:01.213Z,33.83
2022-12-26T02:53:45.213Z,33.08
2022-12-26T02:55:23.985Z,31.65
2022-12-26T02:57:13.518Z,30.65
2022-12-26T02:58:34.863Z,33.05
2022-12-26T02:59:58.905Z,33.25
2022-12-26T03:01:24.312Z,28.35
2022-12-26T03:03:03.257Z,31.90
2022-12-26T03:04:29.103Z,26.85
2022-12-26T03:06:19.763Z,32.53
2022-12-26T03:07:44.717Z,38.20
2022-12-26T03:09:16.600Z,27.88
2022-12-26T03:10:44.201Z,34.58
2022-12-26T03:12:09.355Z,32.60
2022-12-26T03:13:19.898Z,38.97
2022-12-26T03:14:29.115Z,29.65
2022-12-26T03:15:53.768Z,31.90
2022-12-26T03:17:21.026Z,27.15
2022-12-26T03:19:00.021Z,32.97
2022-12-26T03:20:01.214Z,33.42
2022-12-26T03:21:05.428Z,30.73
2022-12-26T03:22:29.391Z,28.17
2022-12-26T03:23:32.659Z,29.67
2022-12-26T03:24:55.482Z,36.90
2022-12-26T03:26:18.857Z,32.53
2022-12-26T03:27:22.021Z,36.80
2022-12-26T03:28:25.242Z,31.65
2022-12-26T03:29:46.615Z,28.20
2022-12-26T03:30:49.467Z,31.50
2022-12-26T03:31:52.366Z,29.55
2022-12-26T03:32:58.781Z,30.60
2022-12-26T03:34:19.180Z,29.95
2022-12-26T03:35:22.074Z,32.45
2022-12-26T03:36:54.415Z,31.17
2022-12-26T03:38:08.095Z,31.88
2022-12-26T03:39:16.017Z,32.88
2022-12-26T03:41:01.348Z,28.55
2022-12-26T03:42:30.523Z,37.00
2022-12-26T03:44:09.556Z,29.13
2022-12-26T03:46:09.391Z,37.30
2022-12-26T03:47:39.603Z,38.80
2022-12-26T03:49:12.305Z,36.13
2022-12-26T03:50:56.693Z,37.00
2022-12-26T03:52:19.661Z,30.00
2022-12-26T03:53:44.098Z,34.67
2022-12-26T03:55:50.534Z,37.33
2022-12-26T03:57:14.896Z,35.03
2022-12-26T03:58:53.747Z,37.83
2022-12-26T04:00:23.579Z,33.28
2022-12-26T04:01:46.668Z,29.77
2022-12-26T04:03:08.720Z,33.08
2022-12-26T04:04:33.221Z,31.83
2022-12-26T04:05:56.698Z,33.55
2022-12-26T04:07:32.037Z,36.78
2022-12-26T04:09:18.446Z,39.53
2022-12-26T04:10:43.335Z,32.65
2022-12-26T04:12:05.456Z,29.92
2022-12-26T04:13:37.205Z,37.17
2022-12-26T04:15:14.264Z,41.38
2022-12-26T04:16:50.951Z,28.90
2022-12-26T04:18:38.615Z,31.02
2022-12-26T04:19:55.907Z,26.35
2022-12-26T04:20:58.640Z,31.58
2022-12-26T04:22:47.025Z,31.63
2022-12-26T04:24:09.244Z,26.15
2022-12-26T04:25:50.739Z,30.80
2022-12-26T04:27:15.398Z,24.50
2022-12-26T04:28:40.094Z,26.65
2022-12-26T04:30:01.376Z,30.27
2022-12-26T04:31:41.699Z,36.22
2022-12-26T04:33:08.194Z,27.77
2022-12-26T04:34:37.873Z,30.08
2022-12-26T04:36:16.760Z,30.58
2022-12-26T04:37:41.871Z,26.45
2022-12-26T04:39:13.715Z,32.72
2022-12-26T04:40:38.748Z,31.85
2022-12-26T04:42:00.763Z,27.50
2022-12-26T04:43:47.016Z,29.13
2022-12-26T04:44:46.622Z,23.20
2022-12-26T04:45:50.012Z,26.08
2022-12-26T04:46:54.679Z,28.17
2022-12-26T04:48:16.339Z,30.05
2022-12-26T04:49:38.882Z,26.40
2022-12-26T04:50:51.909Z,25.73
2022-12-26T04:51:58.973Z,25.90
2022-12-26T04:53:01.750Z,28.33
2022-12-26T04:54:04.894Z,24.92
2022-12-26T04:55:07.965Z,26.40
2022-12-26T04:56:11.096Z,21.70
2022-12-26T04:57:13.878Z,25.95
2022-12-26T04:58:17.964Z,26.33
2022-12-26T04:59:21.416Z,23.55
2022-12-26T05:00:25.256Z,20.92
2022-12-26T05:01:46.736Z,24.52
2022-12-26T05:03:07.922Z,28.08
2022-12-26T05:04:34.700Z,24.90
2022-12-26T05:06:13.447Z,28.60
2022-12-26T05:07:41.813Z,25.27
2022-12-26T05:09:04.797Z,27.95
2022-12-26T05:10:08.922Z,24.33
2022-12-26T05:11:11.834Z,26.65
2022-12-26T05:12:14.552Z,25.17
2022-12-26T05:13:17.236Z,27.42
2022-12-26T05:14:20.044Z,25.67
2022-12-26T05:15:23.165Z,24.27
2022-12-26T05:16:45.702Z,30.77
2022-12-26T05:18:06.814Z,25.23
2022-12-26T05:19:30.579Z,29.17
2022-12-26T05:20:39.570Z,30.42
2022-12-26T05:22:01.028Z,28.58
2022-12-26T05:23:22.562Z,26.33
2022-12-26T05:24:54.049Z,22.20
2022-12-26T05:26:15.620Z,25.88
2022-12-26T05:27:37.123Z,22.92
2022-12-26T05:28:42.744Z,23.83
2022-12-26T05:29:45.443Z,25.20
2022-12-26T05:30:48.189Z,22.08
2022-12-26T05:31:51.124Z,21.85
2022-12-26T05:33:12.679Z,23.13
2022-12-26T05:34:17.607Z,24.42
2022-12-26T05:35:20.365Z,28.50
2022-12-26T05:36:25.359Z,28.05
2022-12-26T05:37:28.142Z,24.08
2022-12-26T05:38:30.942Z,21.13
2022-12-26T05:39:33.739Z,27.17
2022-12-26T05:40:36.790Z,24.15
2022-12-26T05:41:40.705Z,19.15
2022-12-26T05:42:43.784Z,23.75
2022-12-26T05:43:46.568Z,21.85
2022-12-26T05:44:49.863Z,23.17
2022-12-26T05:45:52.610Z,19.50
2022-12-26T05:46:55.506Z,20.77
2022-12-26T05:48:00.252Z,20.02
2022-12-26T05:49:03.656Z,16.67
2022-12-26T05:50:06.922Z,18.20
2022-12-26T05:51:09.685Z,17.75
2022-12-26T05:52:12.629Z,18.52
2022-12-26T05:53:15.583Z,18.05
2022-12-26T05:54:18.324Z,16.48
2022-12-26T05:55:21.177Z,17.75
2022-12-26T05:56:24.176Z,13.85
2022-12-26T05:57:27.044Z,16.35
2022-12-26T05:58:29.759Z,15.80
2022-12-26T05:59:32.485Z,14.85
2022-12-26T06:00:35.400Z,17.60
2022-12-26T06:01:38.367Z,16.20
2022-12-26T06:02:41.295Z,14.50
2022-12-26T06:03:47.931Z,17.42
2022-12-26T06:04:50.846Z,20.13
2022-12-26T06:05:57.476Z,13.65
2022-12-26T06:07:00.199Z,13.80
2022-12-26T06:08:03.196Z,14.50
2022-12-26T06:09:06.002Z,12.55
2022-12-26T06:10:09.340Z,10.35
2022-12-26T06:11:13.229Z,13.10
2022-12-26T06:12:15.908Z,20.65
2022-12-26T06:13:18.716Z,15.57
2022-12-26T06:14:21.548Z,11.07
2022-12-26T06:15:24.312Z,14.90
2022-12-26T06:16:27.141Z,10.57
2022-12-26T06:17:29.953Z,10.25
2022-12-26T06:18:32.909Z,13.48
2022-12-26T06:19:38.879Z,12.38
2022-12-26T06:20:44.258Z,12.95
2022-12-26T06:21:46.990Z,11.50
2022-12-26T06:22:50.240Z,14.00
2022-12-26T06:23:53.272Z,15.82
2022-12-26T06:24:56.056Z,12.30
2022-12-26T06:25:58.897Z,12.77
2022-12-26T06:27:01.845Z,16.20
2022-12-26T06:28:04.736Z,11.40
2022-12-26T06:29:07.730Z,10.82
2022-12-26T06:30:10.922Z,10.65
2022-12-26T06:31:18.276Z,10.13
2022-12-26T06:32:21.149Z,10.13
2022-12-26T06:33:23.831Z,14.95
2022-12-26T06:34:27.823Z,11.75
2022-12-26T06:35:30.627Z,11.60
2022-12-26T06:36:33.341Z,9.85
2022-12-26T06:37:36.278Z,10.20
2022-12-26T06:38:39.071Z,9.68
2022-12-26T06:39:41.791Z,11.68
2022-12-26T06:40:44.517Z,10.95
2022-12-26T06:41:47.437Z,11.80
2022-12-26T06:42:50.206Z,12.02
2022-12-26T06:43:53.158Z,14.40
2022-12-26T06:44:56.210Z,11.68
2022-12-26T06:46:00.147Z,14.45
2022-12-26T06:47:03.321Z,12.90
2022-12-26T06:48:06.712Z,14.70
2022-12-26T06:49:09.441Z,8.43
2022-12-26T06:50:12.463Z,10.55
2022-12-26T06:51:23.794Z,11.70
2022-12-26T06:52:26.490Z,10.43
2022-12-26T06:53:29.375Z,11.15
2022-12-26T06:54:32.381Z,12.38
2022-12-26T06:55:35.158Z,10.88
2022-12-26T06:56:37.840Z,9.23
2022-12-26T06:57:40.710Z,9.93
2022-12-26T06:58:46.094Z,8.32
2022-12-26T06:59:49.215Z,9.05
2022-12-26T07:00:52.007Z,6.90
2022-12-26T07:01:55.015Z,11.77
2022-12-26T07:02:57.935Z,9.52
2022-12-26T07:04:01.409Z,10.10
2022-12-26T07:05:04.510Z,9.52
2022-12-26T07:06:11.900Z,10.45
2022-12-26T07:07:14.678Z,9.35
2022-12-26T07:08:17.522Z,9.65
2022-12-26T07:09:20.774Z,10.52
2022-12-26T07:10:23.461Z,11.48
2022-12-26T07:11:30.696Z,12.00
2022-12-26T07:12:34.915Z,11.75
2022-12-26T07:13:37.646Z,11.23
2022-12-26T07:14:40.658Z,13.90
2022-12-26T07:15:43.846Z,10.60
2022-12-26T07:16:46.717Z,12.48
2022-12-26T07:17:49.861Z,11.38
2022-12-26T07:18:54.316Z,10.65
2022-12-26T07:19:57.009Z,11.57
2022-12-26T07:20:59.936Z,18.15
2022-12-26T07:22:02.707Z,12.80
2022-12-26T07:23:05.634Z,13.75
2022-12-26T07:24:15.302Z,15.13
2022-12-26T07:25:18.095Z,12.55
2022-12-26T07:26:21.530Z,11.52
2022-12-26T07:27:24.478Z,12.45
2022-12-26T07:28:28.139Z,14.30
2022-12-26T07:29:30.935Z,16.42
2022-12-26T07:30:33.782Z,13.27
2022-12-26T07:31:36.526Z,17.95
2022-12-26T07:32:39.332Z,13.45
2022-12-26T07:33:42.015Z,13.73
2022-12-26T07:34:44.740Z,13.88
2022-12-26T07:35:47.602Z,16.13
2022-12-26T07:36:50.462Z,12.60
2022-12-26T07:37:53.206Z,14.05
2022-12-26T07:38:56.203Z,13.32
2022-12-26T07:39:59.556Z,17.48
2022-12-26T07:41:22.444Z,14.40
2022-12-26T07:42:25.141Z,12.23
2022-12-26T07:43:28.334Z,12.93
2022-12-26T07:44:32.670Z,13.55
2022-12-26T07:45:38.045Z,16.95
2022-12-26T07:46:46.549Z,14.43
2022-12-26T07:47:52.809Z,16.70
2022-12-26T07:48:55.617Z,14.02
2022-12-26T07:49:58.329Z,15.27
2022-12-26T07:51:04.124Z,16.98
2022-12-26T07:52:06.927Z,17.50
2022-12-26T07:53:09.747Z,17.15
2022-12-26T07:54:13.808Z,14.18
2022-12-26T07:55:16.596Z,16.25
2022-12-26T07:56:19.427Z,20.88
2022-12-26T07:57:47.407Z,19.05
2022-12-26T07:58:48.960Z,18.00
2022-12-26T07:59:53.627Z,18.80
2022-12-26T08:01:02.279Z,22.00
2022-12-26T08:02:05.269Z,15.00
2022-12-26T08:03:09.898Z,11.77
2022-12-26T08:04:13.738Z,16.25
2022-12-26T08:05:17.628Z,20.95
2022-12-26T08:06:20.670Z,17.15
2022-12-26T08:07:23.693Z,16.58
2022-12-26T08:08:26.339Z,16.48
2022-12-26T08:09:29.091Z,18.35
2022-12-26T08:10:31.797Z,19.92
2022-12-26T08:11:35.821Z,18.52
2022-12-26T08:12:38.789Z,17.33
2022-12-26T08:13:41.496Z,20.60
2022-12-26T08:14:44.223Z,21.77
2022-12-26T08:15:46.983Z,21.50
2022-12-26T08:16:53.380Z,16.45
2022-12-26T08:17:56.657Z,18.75
2022-12-26T08:19:02.963Z,18.90
2022-12-26T08:20:06.829Z,20.30
2022-12-26T08:21:10.487Z,15.43
2022-12-26T08:22:13.374Z,22.13
2022-12-26T08:23:16.411Z,24.10
2022-12-26T08:24:19.377Z,20.52
2022-12-26T08:25:22.369Z,24.02
2022-12-26T08:26:25.063Z,21.27
2022-12-26T08:27:27.906Z,26.75
2022-12-26T08:28:30.617Z,18.67
2022-12-26T08:29:33.382Z,22.73
2022-12-26T08:30:38.570Z,20.15
2022-12-26T08:31:41.634Z,22.63
2022-12-26T08:32:46.352Z,17.30
2022-12-26T08:33:49.422Z,19.38
2022-12-26T08:34:52.266Z,20.40
2022-12-26T08:35:55.118Z,22.73
2022-12-26T08:36:57.897Z,19.70
2022-12-26T08:38:01.537Z,20.40
2022-12-26T08:39:04.298Z,19.48
2022-12-26T08:40:07.584Z,22.00
2022-12-26T08:41:10.367Z,17.83
2022-12-26T08:42:13.170Z,20.88
2022-12-26T08:43:42.180Z,21.63
2022-12-26T08:44:38.474Z,17.58
2022-12-26T08:45:41.285Z,22.90
2022-12-26T08:46:45.485Z,21.73
2022-12-26T08:47:48.320Z,23.83
2022-12-26T08:48:52.071Z,22.05
2022-12-26T08:49:55.009Z,24.73
2022-12-26T08:51:03.748Z,21.60
2022-12-26T08:52:06.450Z,19.55
2022-12-26T08:53:09.666Z,20.33
2022-12-26T08:54:12.408Z,19.45
2022-12-26T08:55:15.179Z,18.00
2022-12-26T08:56:23.819Z,24.80
2022-12-26T08:57:26.524Z,17.20
2022-12-26T08:58:29.556Z,21.13
2022-12-26T08:59:32.351Z,21.73
2022-12-26T09:00:35.132Z,27.20
2022-12-26T09:01:38.874Z,24.27
2022-12-26T09:02:41.913Z,19.48
2022-12-26T09:03:45.036Z,22.73
2022-12-26T09:04:47.836Z,19.45
2022-12-26T09:05:50.718Z,19.15
2022-12-26T09:06:53.516Z,22.88
2022-12-26T09:07:56.670Z,23.63
2022-12-26T09:08:59.652Z,23.52
2022-12-26T09:10:02.440Z,21.63
2022-12-26T09:11:13.515Z,28.45
2022-12-26T09:12:16.277Z,24.23
2022-12-26T09:13:20.307Z,25.08
2022-12-26T09:14:23.163Z,22.25
2022-12-26T09:15:26.002Z,22.88
2022-12-26T09:16:37.412Z,22.60
2022-12-26T09:17:41.991Z,23.70
2022-12-26T09:18:45.729Z,20.80
2022-12-26T09:19:49.863Z,27.00
2022-12-26T09:20:52.537Z,24.30
2022-12-26T09:22:15.773Z,22.92
2022-12-26T09:23:18.489Z,22.23
2022-12-26T09:24:21.413Z,21.25
2022-12-26T09:25:25.991Z,20.92
2022-12-26T09:26:29.119Z,22.15
2022-12-26T09:27:31.904Z,22.05
2022-12-26T09:28:35.195Z,21.42
2022-12-26T09:29:38.458Z,21.38
2022-12-26T09:30:41.311Z,22.73
2022-12-26T09:31:44.268Z,19.92
2022-12-26T09:32:47.086Z,24.45
2022-12-26T09:33:50.284Z,22.52
2022-12-26T09:34:53.043Z,21.75
2022-12-26T09:35:59.806Z,23.20
2022-12-26T09:37:06.393Z,19.98
2022-12-26T09:38:09.092Z,19.23
2022-12-26T09:39:11.842Z,20.13
2022-12-26T09:40:23.872Z,21.08
2022-12-26T09:41:32.732Z,27.15
2022-12-26T09:42:47.568Z,19.05
2022-12-26T09:44:26.989Z,19.52
2022-12-26T09:45:47.647Z,19.45
2022-12-26T09:47:15.207Z,22.02
2022-12-26T09:48:40.074Z,24.48
2022-12-26T09:49:51.926Z,21.50
2022-12-26T09:50:54.787Z,24.08
2022-12-26T09:52:02.315Z,18.95
2022-12-26T09:53:08.041Z,21.77
2022-12-26T09:54:19.362Z,22.77
2022-12-26T09:55:30.028Z,21.27
2022-12-26T09:57:01.877Z,22.92
2022-12-26T09:58:01.175Z,25.10
2022-12-26T09:59:24.603Z,19.63
2022-12-26T10:00:30.251Z,21.85
2022-12-26T10:01:38.859Z,26.42
2022-12-26T10:02:42.416Z,22.30
2022-12-26T10:03:50.612Z,24.55
2022-12-26T10:04:55.263Z,20.17
2022-12-26T10:06:05.321Z,27.75
2022-12-26T10:07:15.091Z,25.73
2022-12-26T10:08:47.843Z,22.10
2022-12-26T10:10:09.300Z,24.25
2022-12-26T10:11:35.876Z,21.23
2022-12-26T10:12:56.830Z,26.60
2022-12-26T10:15:19.712Z,22.17
2022-12-26T10:16:46.035Z,18.33
2022-12-26T10:17:51.692Z,23.75
2022-12-26T10:19:46.618Z,24.45
2022-12-26T10:21:00.885Z,24.52
2022-12-26T10:22:19.076Z,23.85
2022-12-26T10:23:35.511Z,26.83
2022-12-26T10:24:39.781Z,20.85
2022-12-26T10:25:54.353Z,21.73
2022-12-26T10:27:18.233Z,22.08
2022-12-26T10:28:33.401Z,22.42
2022-12-26T10:29:42.611Z,19.48
2022-12-26T10:30:46.880Z,21.10
2022-12-26T10:32:23.004Z,24.63
2022-12-26T10:33:52.497Z,24.40
2022-12-26T10:34:55.681Z,25.55
2022-12-26T10:35:59.771Z,23.60
2022-12-26T10:37:20.146Z,23.35
2022-12-26T10:38:30.173Z,24.67
2022-12-26T10:40:09.931Z,29.88
2022-12-26T10:41:23.737Z,25.45
2022-12-26T10:42:40.888Z,20.42
2022-12-26T10:43:45.748Z,23.90
2022-12-26T10:44:48.529Z,23.90
2022-12-26T10:46:09.951Z,27.50
2022-12-26T10:47:29.218Z,20.27
2022-12-26T10:48:32.070Z,20.05
2022-12-26T10:49:34.938Z,22.00
2022-12-26T10:50:38.436Z,20.88
2022-12-26T10:51:41.407Z,22.85
2022-12-26T10:52:44.218Z,22.27
2022-12-26T10:53:49.919Z,19.90
2022-12-26T10:55:28.492Z,20.00
2022-12-26T10:56:23.062Z,22.67
2022-12-26T10:57:29.135Z,27.42
2022-12-26T10:58:35.053Z,20.10
2022-12-26T10:59:48.979Z,23.75
2022-12-26T11:00:52.033Z,17.42
2022-12-26T11:01:55.177Z,20.13
2022-12-26T11:03:08.211Z,21.23
2022-12-26T11:04:44.524Z,21.95
2022-12-26T11:07:11.812Z,19.85
2022-12-26T11:08:53.216Z,22.13
2022-12-26T11:09:58.618Z,20.83
2022-12-26T11:11:46.045Z,21.15
2022-12-26T11:12:55.724Z,21.52
2022-12-26T11:14:02.990Z,24.95
2022-12-26T11:15:20.425Z,24.90
2022-12-26T11:16:31.636Z,19.90
2022-12-26T11:17:39.463Z,24.08
2022-12-26T11:18:49.836Z,21.33
2022-12-26T11:20:28.146Z,24.63
2022-12-26T11:21:34.830Z,18.90
2022-12-26T11:22:37.713Z,19.88
2022-12-26T11:23:40.539Z,19.75
2022-12-26T11:24:43.375Z,20.27
2022-12-26T11:25:58.478Z,21.30
2022-12-26T11:27:18.316Z,21.30
2022-12-26T11:28:35.269Z,17.90
2022-12-26T11:29:38.034Z,26.70
2022-12-26T11:30:40.917Z,19.40
2022-12-26T11:31:56.164Z,23.58
2022-12-26T11:33:26.507Z,21.75
2022-12-26T11:34:36.650Z,21.13
2022-12-26T11:36:05.183Z,22.27
2022-12-26T11:37:19.795Z,27.20
2022-12-26T11:38:38.997Z,22.83
2022-12-26T11:39:45.568Z,21.00
2022-12-26T11:41:11.402Z,23.42
2022-12-26T11:42:21.771Z,20.80
2022-12-26T11:43:25.135Z,16.88
2022-12-26T11:44:31.117Z,20.73
2022-12-26T11:45:44.501Z,19.75
2022-12-26T11:46:58.819Z,20.45
2022-12-26T11:48:01.665Z,22.50
2022-12-26T11:49:05.230Z,23.70
2022-12-26T11:50:21.231Z,17.50
2022-12-26T11:51:45.648Z,19.48
2022-12-26T11:52:55.107Z,19.55
2022-12-26T11:54:24.055Z,16.85
2022-12-26T11:55:28.461Z,20.33
2022-12-26T11:56:31.599Z,22.77
2022-12-26T11:57:34.356Z,21.25
2022-12-26T11:58:37.236Z,21.63
2022-12-26T11:59:40.347Z,17.60
2022-12-26T12:01:07.391Z,21.88
2022-12-26T12:02:29.320Z,15.75
2022-12-26T12:03:45.247Z,14.52
2022-12-26T12:04:54.738Z,19.15
2022-12-26T12:06:06.105Z,16.17
2022-12-26T12:07:20.631Z,15.98
2022-12-26T12:08:28.655Z,14.52
2022-12-26T12:09:53.175Z,20.08
2022-12-26T12:11:04.146Z,19.23
2022-12-26T12:12:07.144Z,18.25
2022-12-26T12:13:28.114Z,18.35
2022-12-26T12:16:29.248Z,15.05
2022-12-26T12:18:17.465Z,15.73
2022-12-26T12:19:20.316Z,16.08
2022-12-26T12:21:13.678Z,17.02
2022-12-26T12:22:27.933Z,13.10
2022-12-26T12:23:58.001Z,11.98
2022-12-26T12:25:18.541Z,16.10
2022-12-26T12:27:57.127Z,14.27
2022-12-26T12:29:08.824Z,13.60
2022-12-26T12:30:53.286Z,14.32
2022-12-26T12:32:01.714Z,12.07
2022-12-26T12:33:53.855Z,14.63
2022-12-26T12:35:20.901Z,10.52
2022-12-26T12:36:29.608Z,10.30
2022-12-26T12:37:38.450Z,13.98
2022-12-26T12:39:03.552Z,12.95
2022-12-26T12:40:26.970Z,9.23
2022-12-26T12:41:42.187Z,13.90
2022-12-26T12:43:22.350Z,9.60
2022-12-26T12:44:56.653Z,13.02
2022-12-26T12:46:08.491Z,15.18
2022-12-26T12:47:36.317Z,9.73
2022-12-26T12:48:46.390Z,10.57
2022-12-26T12:49:52.131Z,9.93
2022-12-26T12:51:09.986Z,9.30
2022-12-26T12:52:37.073Z,9.10
2022-12-26T12:53:39.757Z,14.75
2022-12-26T12:54:49.541Z,12.00
2022-12-26T12:56:25.150Z,11.82
2022-12-26T12:57:55.206Z,10.77
2022-12-26T12:59:50.532Z,10.45
2022-12-26T13:01:01.041Z,12.60
2022-12-26T13:02:20.288Z,11.55
2022-12-26T13:04:04.184Z,12.70
2022-12-26T13:05:34.257Z,12.75
2022-12-26T13:06:37.077Z,14.32
2022-12-26T13:07:46.903Z,15.77
2022-12-26T13:09:28.323Z,13.93
2022-12-26T13:10:33.423Z,13.15
2022-12-26T13:11:40.015Z,17.92
2022-12-26T13:12:43.657Z,14.40
2022-12-26T13:13:55.392Z,13.45
2022-12-26T13:15:01.907Z,11.82
2022-12-26T13:16:16.092Z,13.50
2022-12-26T13:17:38.136Z,9.55
2022-12-26T13:18:48.348Z,13.88
2022-12-26T13:20:02.651Z,11.32
2022-12-26T13:21:07.789Z,13.93
2022-12-26T13:22:53.475Z,10.32
2022-12-26T13:24:24.049Z,14.02
2022-12-26T13:25:31.500Z,11.57
2022-12-26T13:26:47.197Z,11.05
2022-12-26T13:27:52.078Z,10.35
2022-12-26T13:28:57.936Z,11.80
2022-12-26T13:30:00.842Z,10.07
2022-12-26T13:31:03.609Z,9.75
2022-12-26T13:32:22.518Z,14.13
2022-12-26T13:33:25.563Z,11.07
2022-12-26T13:34:28.819Z,9.02
2022-12-26T13:35:56.136Z,11.30
2022-12-26T13:37:01.102Z,14.05
2022-12-26T13:38:03.929Z,11.82
2022-12-26T13:39:27.725Z,11.38
2022-12-26T13:40:35.202Z,9.45
2022-12-26T13:41:58.860Z,11.52
2022-12-26T13:43:38.218Z,12.00
2022-12-26T13:44:41.184Z,12.20
2022-12-26T13:45:43.987Z,8.30
2022-12-26T13:46:49.495Z,12.80
2022-12-26T13:47:52.268Z,11.18
2022-12-26T13:48:57.496Z,7.45
2022-12-26T13:50:38.969Z,9.05
2022-12-26T13:51:43.287Z,11.00
2022-12-26T13:52:47.226Z,9.02
2022-12-26T13:53:59.941Z,8.15
2022-12-26T13:55:09.277Z,8.75
2022-12-26T13:56:18.217Z,11.45
2022-12-26T13:57:42.946Z,9.18
2022-12-26T13:58:58.723Z,9.23
2022-12-26T14:00:23.835Z,10.75
2022-12-26T14:01:36.544Z,9.75
2022-12-26T14:03:15.981Z,7.75
2022-12-26T14:04:20.438Z,8.23
2022-12-26T14:06:10.486Z,9.32
2022-12-26T14:07:41.942Z,7.95
2022-12-26T14:08:55.553Z,9.70
2022-12-26T14:10:30.108Z,11.23
2022-12-26T14:11:57.058Z,8.98
2022-12-26T14:13:25.117Z,8.85
2022-12-26T14:14:46.221Z,9.20
2022-12-26T14:16:18.225Z,8.45
2022-12-26T14:17:41.565Z,12.77
2022-12-26T14:19:22.116Z,8.48
2022-12-26T14:20:40.081Z,8.70
2022-12-26T14:22:09.290Z,7.82
2022-12-26T14:23:24.557Z,10.73
2022-12-26T14:24:52.328Z,10.95
2022-12-26T14:26:18.318Z,13.63
2022-12-26T14:27:45.247Z,10.13
2022-12-26T14:29:12.410Z,10.02
2022-12-26T14:30:35.346Z,10.18
2022-12-26T14:31:43.836Z,11.45
2022-12-26T14:33:07.816Z,9.73
2022-12-26T14:34:55.031Z,9.25
2022-12-26T14:36:12.503Z,11.20
2022-12-26T14:37:21.079Z,13.13
2022-12-26T14:38:32.477Z,9.77
2022-12-26T14:39:37.999Z,15.63
2022-12-26T14:41:02.222Z,12.38
2022-12-26T14:42:27.047Z,9.27
2022-12-26T14:43:40.934Z,10.40
2022-12-26T14:44:44.362Z,9.02
2022-12-26T14:45:52.570Z,10.63
2022-12-26T14:46:58.455Z,10.73
2022-12-26T14:48:01.700Z,7.72
2022-12-26T14:49:24.229Z,8.77
2022-12-26T14:50:33.260Z,9.18
2022-12-26T14:51:37.329Z,8.43
2022-12-26T14:52:41.133Z,12.13
2022-12-26T14:53:45.797Z,9.45
2022-12-26T14:54:51.459Z,11.23
2022-12-26T14:56:14.584Z,9.15
2022-12-26T14:57:36.199Z,11.23
2022-12-26T14:58:49.591Z,10.82
2022-12-26T15:00:21.335Z,10.27
2022-12-26T15:01:24.251Z,12.23
2022-12-26T15:02:34.480Z,10.27
2022-12-26T15:03:40.643Z,10.80
2022-12-26T15:05:05.687Z,10.32
2022-12-26T15:06:21.189Z,10.13
2022-12-26T15:07:57.655Z,9.65
2022-12-26T15:09:29.583Z,11.82
2022-12-26T15:10:49.219Z,11.00
2022-12-26T15:12:29.502Z,11.55
2022-12-26T15:14:05.005Z,6.72
2022-12-26T15:15:25.574Z,11.57
2022-12-26T15:16:40.505Z,9.38
2022-12-26T15:17:45.856Z,9.18
2022-12-26T15:19:38.034Z,10.43
2022-12-26T15:21:21.756Z,11.45
2022-12-26T15:23:08.372Z,9.13
2022-12-26T15:24:26.977Z,14.40
2022-12-26T15:26:05.622Z,10.05
2022-12-26T15:27:26.741Z,9.43
2022-12-26T15:28:41.104Z,10.43
2022-12-26T15:30:25.762Z,11.90
2022-12-26T15:31:36.771Z,8.95
2022-12-26T15:32:50.550Z,10.23
2022-12-26T15:34:22.581Z,11.07
2022-12-26T15:35:33.804Z,9.15
2022-12-26T15:36:48.166Z,8.93
2022-12-26T15:38:33.310Z,11.50
2022-12-26T15:39:58.961Z,9.15